sensor_id;sensor_type;location;lat;lon;timestamp;P1;durP1;ratioP1;P2;durP2;ratioP2
68583;SDS011;55557;49.220;11.150;2023-03-01T00:00:37;16.27;;;8.70;;
68583;SDS011;55557;49.220;11.150;2023-03-01T00:03:03;12.40;;;8.13;;
68583;SDS011;55557;49.220;11.150;2023-03-01T00:05:29;16.50;;;8.87;;
68583;SDS011;55557;49.220;11.150;2023-03-01T00:07:55;15.60;;;9.80;;
68583;SDS011;55557;49.220;11.150;2023-03-01T00:10:21;12.97;;;8.03;;
68583;SDS011;55557;49.220;11.150;2023-03-01T00:12:47;12.43;;;8.03;;
68583;SDS011;55557;49.220;11.150;2023-03-01T00:15:13;13.77;;;8.30;;
68583;SDS011;55557;49.220;11.150;2023-03-01T00:17:39;13.70;;;9.27;;
68583;SDS011;55557;49.220;11.150;2023-03-01T00:20:05;14.23;;;8.70;;
68583;SDS011;55557;49.220;11.150;2023-03-01T00:22:35;12.90;;;8.93;;
68583;SDS011;55557;49.220;11.150;2023-03-01T00:25:01;18.93;;;10.90;;
68583;SDS011;55557;49.220;11.150;2023-03-01T00:27:27;15.47;;;9.00;;
68583;SDS011;55557;49.220;11.150;2023-03-01T00:29:53;15.67;;;8.40;;
68583;SDS011;55557;49.220;11.150;2023-03-01T00:32:19;8.97;;;6.63;;
68583;SDS011;55557;49.220;11.150;2023-03-01T00:34:45;13.93;;;8.50;;
68583;SDS011;55557;49.220;11.150;2023-03-01T00:37:22;13.17;;;8.67;;
68583;SDS011;55557;49.220;11.150;2023-03-01T00:39:48;12.60;;;8.27;;
68583;SDS011;55557;49.220;11.150;2023-03-01T00:42:15;12.03;;;8.23;;
68583;SDS011;55557;49.220;11.150;2023-03-01T00:44:41;12.07;;;8.77;;
68583;SDS011;55557;49.220;11.150;2023-03-01T00:47:07;14.20;;;7.87;;
68583;SDS011;55557;49.220;11.150;2023-03-01T00:49:33;12.93;;;8.07;;
68583;SDS011;55557;49.220;11.150;2023-03-01T00:51:59;12.47;;;8.83;;
68583;SDS011;55557;49.220;11.150;2023-03-01T00:54:25;15.40;;;8.67;;
68583;SDS011;55557;49.220;11.150;2023-03-01T00:56:51;12.50;;;7.73;;
68583;SDS011;55557;49.220;11.150;2023-03-01T00:59:17;15.07;;;8.23;;
68583;SDS011;55557;49.220;11.150;2023-03-01T01:01:43;12.40;;;7.83;;
68583;SDS011;55557;49.220;11.150;2023-03-01T01:04:10;12.27;;;9.30;;
68583;SDS011;55557;49.220;11.150;2023-03-01T01:06:38;12.97;;;7.97;;
68583;SDS011;55557;49.220;11.150;2023-03-01T01:09:07;12.00;;;8.70;;
68583;SDS011;55557;49.220;11.150;2023-03-01T01:11:34;13.10;;;8.50;;
68583;SDS011;55557;49.220;11.150;2023-03-01T01:14:01;13.93;;;9.07;;
68583;SDS011;55557;49.220;11.150;2023-03-01T01:16:28;15.80;;;9.10;;
68583;SDS011;55557;49.220;11.150;2023-03-01T01:18:55;14.53;;;8.37;;
68583;SDS011;55557;49.220;11.150;2023-03-01T01:21:22;16.33;;;8.93;;
68583;SDS011;55557;49.220;11.150;2023-03-01T01:23:48;13.73;;;8.87;;
68583;SDS011;55557;49.220;11.150;2023-03-01T01:26:17;15.83;;;8.30;;
68583;SDS011;55557;49.220;11.150;2023-03-01T01:28:43;14.33;;;9.00;;
68583;SDS011;55557;49.220;11.150;2023-03-01T01:31:09;12.83;;;8.40;;
68583;SDS011;55557;49.220;11.150;2023-03-01T01:33:35;15.20;;;8.73;;
68583;SDS011;55557;49.220;11.150;2023-03-01T01:36:02;13.33;;;7.87;;
68583;SDS011;55557;49.220;11.150;2023-03-01T01:38:28;14.53;;;9.03;;
68583;SDS011;55557;49.220;11.150;2023-03-01T01:40:54;14.13;;;8.33;;
68583;SDS011;55557;49.220;11.150;2023-03-01T01:43:24;14.60;;;8.63;;
68583;SDS011;55557;49.220;11.150;2023-03-01T01:45:51;14.93;;;8.87;;
68583;SDS011;55557;49.220;11.150;2023-03-01T01:48:20;16.00;;;9.33;;
68583;SDS011;55557;49.220;11.150;2023-03-01T01:50:49;13.30;;;8.60;;
68583;SDS011;55557;49.220;11.150;2023-03-01T01:53:17;11.90;;;8.60;;
68583;SDS011;55557;49.220;11.150;2023-03-01T01:55:47;16.13;;;8.77;;
68583;SDS011;55557;49.220;11.150;2023-03-01T01:58:15;14.07;;;8.13;;
68583;SDS011;55557;49.220;11.150;2023-03-01T02:00:42;16.83;;;9.37;;
68583;SDS011;55557;49.220;11.150;2023-03-01T02:03:10;12.40;;;8.10;;
68583;SDS011;55557;49.220;11.150;2023-03-01T02:05:45;13.57;;;8.67;;
68583;SDS011;55557;49.220;11.150;2023-03-01T02:08:13;16.37;;;9.27;;
68583;SDS011;55557;49.220;11.150;2023-03-01T02:10:39;12.60;;;8.93;;
68583;SDS011;55557;49.220;11.150;2023-03-01T02:13:06;14.73;;;8.80;;
68583;SDS011;55557;49.220;11.150;2023-03-01T02:15:33;12.33;;;7.80;;
68583;SDS011;55557;49.220;11.150;2023-03-01T02:17:59;14.17;;;8.40;;
68583;SDS011;55557;49.220;11.150;2023-03-01T02:20:29;15.07;;;8.90;;
68583;SDS011;55557;49.220;11.150;2023-03-01T02:22:58;12.83;;;9.10;;
68583;SDS011;55557;49.220;11.150;2023-03-01T02:25:33;14.03;;;9.57;;
68583;SDS011;55557;49.220;11.150;2023-03-01T02:30:29;14.20;;;9.27;;
68583;SDS011;55557;49.220;11.150;2023-03-01T02:32:55;13.13;;;8.67;;
68583;SDS011;55557;49.220;11.150;2023-03-01T02:35:27;14.20;;;9.47;;
68583;SDS011;55557;49.220;11.150;2023-03-01T02:37:55;15.67;;;9.30;;
68583;SDS011;55557;49.220;11.150;2023-03-01T02:40:22;15.63;;;9.57;;
68583;SDS011;55557;49.220;11.150;2023-03-01T02:42:56;12.27;;;9.37;;
68583;SDS011;55557;49.220;11.150;2023-03-01T02:45:23;15.77;;;9.83;;
68583;SDS011;55557;49.220;11.150;2023-03-01T02:47:49;15.47;;;9.83;;
68583;SDS011;55557;49.220;11.150;2023-03-01T02:50:19;12.73;;;8.83;;
68583;SDS011;55557;49.220;11.150;2023-03-01T02:53:09;16.17;;;9.50;;
68583;SDS011;55557;49.220;11.150;2023-03-01T02:55:33;17.90;;;10.77;;
68583;SDS011;55557;49.220;11.150;2023-03-01T02:57:59;14.90;;;10.27;;
68583;SDS011;55557;49.220;11.150;2023-03-01T03:00:28;14.67;;;10.37;;
68583;SDS011;55557;49.220;11.150;2023-03-01T03:02:58;20.53;;;11.40;;
68583;SDS011;55557;49.220;11.150;2023-03-01T03:05:26;16.77;;;10.90;;
68583;SDS011;55557;49.220;11.150;2023-03-01T03:07:53;19.43;;;11.73;;
68583;SDS011;55557;49.220;11.150;2023-03-01T03:10:23;17.47;;;11.17;;
68583;SDS011;55557;49.220;11.150;2023-03-01T03:12:53;21.37;;;11.13;;
68583;SDS011;55557;49.220;11.150;2023-03-01T03:15:20;15.53;;;10.43;;
68583;SDS011;55557;49.220;11.150;2023-03-01T03:17:46;22.80;;;13.93;;
68583;SDS011;55557;49.220;11.150;2023-03-01T03:20:13;22.00;;;12.27;;
68583;SDS011;55557;49.220;11.150;2023-03-01T03:22:44;24.00;;;14.77;;
68583;SDS011;55557;49.220;11.150;2023-03-01T03:25:10;24.30;;;13.10;;
68583;SDS011;55557;49.220;11.150;2023-03-01T03:27:37;22.30;;;12.33;;
68583;SDS011;55557;49.220;11.150;2023-03-01T03:30:04;21.83;;;12.73;;
68583;SDS011;55557;49.220;11.150;2023-03-01T03:32:34;19.27;;;11.23;;
68583;SDS011;55557;49.220;11.150;2023-03-01T03:35:00;17.90;;;11.33;;
68583;SDS011;55557;49.220;11.150;2023-03-01T03:37:26;20.50;;;13.70;;
68583;SDS011;55557;49.220;11.150;2023-03-01T03:40:11;22.03;;;12.50;;
68583;SDS011;55557;49.220;11.150;2023-03-01T03:42:40;17.97;;;11.03;;
68583;SDS011;55557;49.220;11.150;2023-03-01T03:45:06;23.67;;;12.03;;
68583;SDS011;55557;49.220;11.150;2023-03-01T03:47:32;22.40;;;12.93;;
68583;SDS011;55557;49.220;11.150;2023-03-01T03:49:58;18.73;;;10.60;;
68583;SDS011;55557;49.220;11.150;2023-03-01T03:52:24;15.77;;;11.73;;
68583;SDS011;55557;49.220;11.150;2023-03-01T03:54:50;16.03;;;10.47;;
68583;SDS011;55557;49.220;11.150;2023-03-01T03:57:16;19.13;;;10.57;;
68583;SDS011;55557;49.220;11.150;2023-03-01T03:59:42;20.13;;;12.77;;
68583;SDS011;55557;49.220;11.150;2023-03-01T04:02:08;16.93;;;11.77;;
68583;SDS011;55557;49.220;11.150;2023-03-01T04:04:34;20.53;;;12.07;;
68583;SDS011;55557;49.220;11.150;2023-03-01T04:07:00;20.23;;;12.80;;
68583;SDS011;55557;49.220;11.150;2023-03-01T04:09:26;18.87;;;11.97;;
68583;SDS011;55557;49.220;11.150;2023-03-01T04:11:55;17.67;;;12.37;;
68583;SDS011;55557;49.220;11.150;2023-03-01T04:14:21;20.53;;;12.33;;
68583;SDS011;55557;49.220;11.150;2023-03-01T04:16:47;22.40;;;12.80;;
68583;SDS011;55557;49.220;11.150;2023-03-01T04:19:13;29.97;;;11.87;;
68583;SDS011;55557;49.220;11.150;2023-03-01T04:21:40;19.93;;;12.80;;
68583;SDS011;55557;49.220;11.150;2023-03-01T04:24:06;18.53;;;11.43;;
68583;SDS011;55557;49.220;11.150;2023-03-01T04:26:33;20.87;;;13.77;;
68583;SDS011;55557;49.220;11.150;2023-03-01T04:28:59;18.03;;;11.57;;
68583;SDS011;55557;49.220;11.150;2023-03-01T04:31:25;20.53;;;11.13;;
68583;SDS011;55557;49.220;11.150;2023-03-01T04:33:53;17.27;;;12.03;;
68583;SDS011;55557;49.220;11.150;2023-03-01T04:36:20;17.40;;;11.50;;
68583;SDS011;55557;49.220;11.150;2023-03-01T04:38:47;24.07;;;14.00;;
68583;SDS011;55557;49.220;11.150;2023-03-01T04:41:14;22.43;;;14.53;;
68583;SDS011;55557;49.220;11.150;2023-03-01T04:43:41;19.17;;;12.30;;
68583;SDS011;55557;49.220;11.150;2023-03-01T04:46:08;21.80;;;14.60;;
68583;SDS011;55557;49.220;11.150;2023-03-01T04:48:35;21.13;;;13.73;;
68583;SDS011;55557;49.220;11.150;2023-03-01T04:51:01;22.33;;;12.77;;
68583;SDS011;55557;49.220;11.150;2023-03-01T04:53:28;27.10;;;13.70;;
68583;SDS011;55557;49.220;11.150;2023-03-01T04:55:54;21.47;;;12.40;;
68583;SDS011;55557;49.220;11.150;2023-03-01T04:58:24;20.07;;;10.90;;
68583;SDS011;55557;49.220;11.150;2023-03-01T05:00:51;19.17;;;11.63;;
68583;SDS011;55557;49.220;11.150;2023-03-01T05:03:17;20.87;;;12.17;;
68583;SDS011;55557;49.220;11.150;2023-03-01T05:05:44;22.40;;;13.67;;
68583;SDS011;55557;49.220;11.150;2023-03-01T05:08:10;19.93;;;12.47;;
68583;SDS011;55557;49.220;11.150;2023-03-01T05:10:43;17.87;;;11.57;;
68583;SDS011;55557;49.220;11.150;2023-03-01T05:13:11;25.13;;;12.77;;
68583;SDS011;55557;49.220;11.150;2023-03-01T05:15:38;19.07;;;12.10;;
68583;SDS011;55557;49.220;11.150;2023-03-01T05:18:04;17.47;;;11.50;;
68583;SDS011;55557;49.220;11.150;2023-03-01T05:20:36;21.97;;;11.50;;
68583;SDS011;55557;49.220;11.150;2023-03-01T05:23:02;18.53;;;11.80;;
68583;SDS011;55557;49.220;11.150;2023-03-01T05:25:30;14.70;;;11.63;;
68583;SDS011;55557;49.220;11.150;2023-03-01T05:27:57;29.33;;;11.93;;
68583;SDS011;55557;49.220;11.150;2023-03-01T05:30:23;20.97;;;11.03;;
68583;SDS011;55557;49.220;11.150;2023-03-01T05:32:50;19.27;;;12.13;;
68583;SDS011;55557;49.220;11.150;2023-03-01T05:35:21;20.77;;;11.50;;
68583;SDS011;55557;49.220;11.150;2023-03-01T05:37:47;21.33;;;13.63;;
68583;SDS011;55557;49.220;11.150;2023-03-01T05:40:15;17.77;;;11.77;;
68583;SDS011;55557;49.220;11.150;2023-03-01T05:42:48;20.30;;;11.90;;
68583;SDS011;55557;49.220;11.150;2023-03-01T05:45:15;18.23;;;10.77;;
68583;SDS011;55557;49.220;11.150;2023-03-01T05:47:42;22.20;;;11.37;;
68583;SDS011;55557;49.220;11.150;2023-03-01T05:50:09;22.40;;;13.97;;
68583;SDS011;55557;49.220;11.150;2023-03-01T05:52:35;18.47;;;12.13;;
68583;SDS011;55557;49.220;11.150;2023-03-01T05:55:01;21.50;;;12.40;;
68583;SDS011;55557;49.220;11.150;2023-03-01T05:57:28;17.17;;;11.47;;
68583;SDS011;55557;49.220;11.150;2023-03-01T05:59:54;16.00;;;12.03;;
68583;SDS011;55557;49.220;11.150;2023-03-01T06:02:20;20.83;;;12.10;;
68583;SDS011;55557;49.220;11.150;2023-03-01T06:04:46;19.30;;;11.80;;
68583;SDS011;55557;49.220;11.150;2023-03-01T06:07:12;25.27;;;12.00;;
68583;SDS011;55557;49.220;11.150;2023-03-01T06:09:38;20.50;;;11.33;;
68583;SDS011;55557;49.220;11.150;2023-03-01T06:12:05;19.23;;;12.10;;
68583;SDS011;55557;49.220;11.150;2023-03-01T06:14:31;16.23;;;10.87;;
68583;SDS011;55557;49.220;11.150;2023-03-01T06:16:57;18.20;;;11.70;;
68583;SDS011;55557;49.220;11.150;2023-03-01T06:19:23;19.43;;;11.23;;
68583;SDS011;55557;49.220;11.150;2023-03-01T06:21:49;14.93;;;10.90;;
68583;SDS011;55557;49.220;11.150;2023-03-01T06:24:15;19.33;;;11.30;;
68583;SDS011;55557;49.220;11.150;2023-03-01T06:26:41;17.93;;;10.90;;
68583;SDS011;55557;49.220;11.150;2023-03-01T06:29:07;20.87;;;12.43;;
68583;SDS011;55557;49.220;11.150;2023-03-01T06:31:33;22.63;;;12.27;;
68583;SDS011;55557;49.220;11.150;2023-03-01T06:33:59;18.90;;;11.50;;
68583;SDS011;55557;49.220;11.150;2023-03-01T06:36:33;19.57;;;12.20;;
68583;SDS011;55557;49.220;11.150;2023-03-01T06:38:59;18.37;;;11.63;;
68583;SDS011;55557;49.220;11.150;2023-03-01T06:41:25;21.03;;;11.67;;
68583;SDS011;55557;49.220;11.150;2023-03-01T06:43:51;21.57;;;13.17;;
68583;SDS011;55557;49.220;11.150;2023-03-01T06:46:19;17.27;;;10.97;;
68583;SDS011;55557;49.220;11.150;2023-03-01T06:48:46;19.20;;;11.37;;
68583;SDS011;55557;49.220;11.150;2023-03-01T06:51:12;19.70;;;11.30;;
68583;SDS011;55557;49.220;11.150;2023-03-01T06:53:38;22.70;;;11.93;;
68583;SDS011;55557;49.220;11.150;2023-03-01T06:56:04;22.10;;;12.03;;
68583;SDS011;55557;49.220;11.150;2023-03-01T06:58:30;28.07;;;14.27;;
68583;SDS011;55557;49.220;11.150;2023-03-01T07:00:56;20.90;;;13.00;;
68583;SDS011;55557;49.220;11.150;2023-03-01T07:03:23;21.57;;;12.60;;
68583;SDS011;55557;49.220;11.150;2023-03-01T07:05:49;20.23;;;13.23;;
68583;SDS011;55557;49.220;11.150;2023-03-01T07:08:19;22.67;;;12.27;;
68583;SDS011;55557;49.220;11.150;2023-03-01T07:10:45;23.70;;;13.90;;
68583;SDS011;55557;49.220;11.150;2023-03-01T07:13:11;25.95;;;16.63;;
68583;SDS011;55557;49.220;11.150;2023-03-01T07:15:40;22.50;;;13.07;;
68583;SDS011;55557;49.220;11.150;2023-03-01T07:18:06;23.27;;;12.07;;
68583;SDS011;55557;49.220;11.150;2023-03-01T07:20:32;22.47;;;14.00;;
68583;SDS011;55557;49.220;11.150;2023-03-01T07:22:59;32.70;;;15.27;;
68583;SDS011;55557;49.220;11.150;2023-03-01T07:25:25;26.60;;;15.93;;
68583;SDS011;55557;49.220;11.150;2023-03-01T07:27:51;24.43;;;16.17;;
68583;SDS011;55557;49.220;11.150;2023-03-01T07:30:18;24.87;;;15.10;;
68583;SDS011;55557;49.220;11.150;2023-03-01T07:32:44;23.13;;;15.17;;
68583;SDS011;55557;49.220;11.150;2023-03-01T07:35:10;26.57;;;14.70;;
68583;SDS011;55557;49.220;11.150;2023-03-01T07:37:37;26.57;;;16.10;;
68583;SDS011;55557;49.220;11.150;2023-03-01T07:40:03;22.07;;;14.90;;
68583;SDS011;55557;49.220;11.150;2023-03-01T07:42:29;21.77;;;14.60;;
68583;SDS011;55557;49.220;11.150;2023-03-01T07:44:55;29.07;;;16.30;;
68583;SDS011;55557;49.220;11.150;2023-03-01T07:47:21;27.10;;;17.00;;
68583;SDS011;55557;49.220;11.150;2023-03-01T07:49:47;24.23;;;16.13;;
68583;SDS011;55557;49.220;11.150;2023-03-01T07:52:13;31.30;;;18.47;;
68583;SDS011;55557;49.220;11.150;2023-03-01T07:54:45;28.27;;;16.30;;
68583;SDS011;55557;49.220;11.150;2023-03-01T07:57:11;32.27;;;18.00;;
68583;SDS011;55557;49.220;11.150;2023-03-01T07:59:40;36.57;;;18.30;;
68583;SDS011;55557;49.220;11.150;2023-03-01T08:02:06;35.50;;;19.23;;
68583;SDS011;55557;49.220;11.150;2023-03-01T08:04:32;38.40;;;20.00;;
68583;SDS011;55557;49.220;11.150;2023-03-01T08:06:58;32.50;;;18.07;;
68583;SDS011;55557;49.220;11.150;2023-03-01T08:09:24;29.20;;;17.27;;
68583;SDS011;55557;49.220;11.150;2023-03-01T08:11:50;32.40;;;17.97;;
68583;SDS011;55557;49.220;11.150;2023-03-01T08:14:16;29.63;;;17.00;;
68583;SDS011;55557;49.220;11.150;2023-03-01T08:16:42;26.33;;;16.63;;
68583;SDS011;55557;49.220;11.150;2023-03-01T08:19:10;24.17;;;14.97;;
68583;SDS011;55557;49.220;11.150;2023-03-01T08:21:36;28.90;;;15.57;;
68583;SDS011;55557;49.220;11.150;2023-03-01T08:24:02;29.27;;;15.50;;
68583;SDS011;55557;49.220;11.150;2023-03-01T08:26:29;32.97;;;18.43;;
68583;SDS011;55557;49.220;11.150;2023-03-01T08:28:55;27.30;;;16.70;;
68583;SDS011;55557;49.220;11.150;2023-03-01T08:31:29;31.23;;;15.00;;
68583;SDS011;55557;49.220;11.150;2023-03-01T08:33:57;28.33;;;15.47;;
68583;SDS011;55557;49.220;11.150;2023-03-01T08:36:25;28.07;;;15.30;;
68583;SDS011;55557;49.220;11.150;2023-03-01T08:38:52;29.43;;;15.20;;
68583;SDS011;55557;49.220;11.150;2023-03-01T08:41:18;26.97;;;14.73;;
68583;SDS011;55557;49.220;11.150;2023-03-01T08:43:45;23.90;;;15.20;;
68583;SDS011;55557;49.220;11.150;2023-03-01T08:46:11;23.53;;;14.23;;
68583;SDS011;55557;49.220;11.150;2023-03-01T08:48:38;25.43;;;14.67;;
68583;SDS011;55557;49.220;11.150;2023-03-01T08:51:18;27.97;;;15.10;;
68583;SDS011;55557;49.220;11.150;2023-03-01T08:53:44;23.37;;;14.70;;
68583;SDS011;55557;49.220;11.150;2023-03-01T08:56:11;29.10;;;15.57;;
68583;SDS011;55557;49.220;11.150;2023-03-01T08:58:37;24.73;;;14.23;;
68583;SDS011;55557;49.220;11.150;2023-03-01T09:01:08;31.57;;;15.67;;
68583;SDS011;55557;49.220;11.150;2023-03-01T09:03:35;27.93;;;15.07;;
68583;SDS011;55557;49.220;11.150;2023-03-01T09:06:01;26.10;;;15.87;;
68583;SDS011;55557;49.220;11.150;2023-03-01T09:08:28;27.57;;;14.30;;
68583;SDS011;55557;49.220;11.150;2023-03-01T09:10:54;25.40;;;13.93;;
68583;SDS011;55557;49.220;11.150;2023-03-01T09:13:20;26.17;;;15.23;;
68583;SDS011;55557;49.220;11.150;2023-03-01T09:15:50;22.17;;;13.07;;
68583;SDS011;55557;49.220;11.150;2023-03-01T09:18:16;27.70;;;13.53;;
68583;SDS011;55557;49.220;11.150;2023-03-01T09:20:42;25.53;;;14.77;;
68583;SDS011;55557;49.220;11.150;2023-03-01T09:23:08;24.93;;;14.07;;
68583;SDS011;55557;49.220;11.150;2023-03-01T09:25:35;25.63;;;14.73;;
68583;SDS011;55557;49.220;11.150;2023-03-01T09:28:01;28.37;;;16.03;;
68583;SDS011;55557;49.220;11.150;2023-03-01T09:30:27;25.83;;;14.67;;
68583;SDS011;55557;49.220;11.150;2023-03-01T09:32:53;28.70;;;13.43;;
68583;SDS011;55557;49.220;11.150;2023-03-01T09:35:19;23.27;;;13.87;;
68583;SDS011;55557;49.220;11.150;2023-03-01T09:37:47;26.53;;;14.10;;
68583;SDS011;55557;49.220;11.150;2023-03-01T09:40:16;24.13;;;13.60;;
68583;SDS011;55557;49.220;11.150;2023-03-01T09:45:19;24.00;;;14.33;;
68583;SDS011;55557;49.220;11.150;2023-03-01T09:47:49;24.60;;;15.07;;
68583;SDS011;55557;49.220;11.150;2023-03-01T09:50:16;26.80;;;14.30;;
68583;SDS011;55557;49.220;11.150;2023-03-01T09:55:11;23.97;;;14.40;;
68583;SDS011;55557;49.220;11.150;2023-03-01T10:00:42;24.77;;;14.80;;
68583;SDS011;55557;49.220;11.150;2023-03-01T10:03:12;26.13;;;14.57;;
68583;SDS011;55557;49.220;11.150;2023-03-01T10:05:41;23.90;;;13.47;;
68583;SDS011;55557;49.220;11.150;2023-03-01T10:10:39;25.97;;;14.27;;
68583;SDS011;55557;49.220;11.150;2023-03-01T10:13:15;33.23;;;14.20;;
68583;SDS011;55557;49.220;11.150;2023-03-01T10:15:44;28.13;;;15.07;;
68583;SDS011;55557;49.220;11.150;2023-03-01T10:21:12;21.93;;;12.97;;
68583;SDS011;55557;49.220;11.150;2023-03-01T10:23:39;27.37;;;13.93;;
68583;SDS011;55557;49.220;11.150;2023-03-01T10:26:30;25.23;;;13.63;;
68583;SDS011;55557;49.220;11.150;2023-03-01T10:29:03;24.37;;;13.20;;
68583;SDS011;55557;49.220;11.150;2023-03-01T10:31:48;25.10;;;13.70;;
68583;SDS011;55557;49.220;11.150;2023-03-01T10:36:41;23.77;;;13.60;;
68583;SDS011;55557;49.220;11.150;2023-03-01T10:39:17;17.90;;;11.77;;
68583;SDS011;55557;49.220;11.150;2023-03-01T10:41:57;22.23;;;13.13;;
68583;SDS011;55557;49.220;11.150;2023-03-01T10:47:13;25.27;;;13.03;;
68583;SDS011;55557;49.220;11.150;2023-03-01T10:49:42;22.37;;;13.40;;
68583;SDS011;55557;49.220;11.150;2023-03-01T10:52:21;20.97;;;11.70;;
68583;SDS011;55557;49.220;11.150;2023-03-01T10:54:54;25.57;;;13.37;;
68583;SDS011;55557;49.220;11.150;2023-03-01T10:57:32;22.57;;;12.27;;
68583;SDS011;55557;49.220;11.150;2023-03-01T11:00:15;20.10;;;12.00;;
68583;SDS011;55557;49.220;11.150;2023-03-01T11:02:49;22.20;;;12.00;;
68583;SDS011;55557;49.220;11.150;2023-03-01T11:05:19;21.07;;;12.50;;
68583;SDS011;55557;49.220;11.150;2023-03-01T11:07:55;21.97;;;12.37;;
68583;SDS011;55557;49.220;11.150;2023-03-01T11:10:25;21.73;;;12.30;;
68583;SDS011;55557;49.220;11.150;2023-03-01T11:12:52;20.37;;;12.00;;
68583;SDS011;55557;49.220;11.150;2023-03-01T11:15:26;18.57;;;11.80;;
68583;SDS011;55557;49.220;11.150;2023-03-01T11:17:52;23.57;;;12.73;;
68583;SDS011;55557;49.220;11.150;2023-03-01T11:22:56;19.90;;;10.90;;
68583;SDS011;55557;49.220;11.150;2023-03-01T11:25:27;17.33;;;10.63;;
68583;SDS011;55557;49.220;11.150;2023-03-01T11:27:55;24.57;;;11.10;;
68583;SDS011;55557;49.220;11.150;2023-03-01T11:30:27;18.50;;;11.40;;
68583;SDS011;55557;49.220;11.150;2023-03-01T11:35:21;17.47;;;10.40;;
68583;SDS011;55557;49.220;11.150;2023-03-01T11:40:34;17.80;;;10.53;;
68583;SDS011;55557;49.220;11.150;2023-03-01T11:45:48;18.70;;;10.13;;
68583;SDS011;55557;49.220;11.150;2023-03-01T11:48:38;16.73;;;10.17;;
68583;SDS011;55557;49.220;11.150;2023-03-01T11:51:09;18.73;;;10.40;;
68583;SDS011;55557;49.220;11.150;2023-03-01T11:53:51;16.17;;;10.27;;
68583;SDS011;55557;49.220;11.150;2023-03-01T11:56:32;17.33;;;11.00;;
68583;SDS011;55557;49.220;11.150;2023-03-01T12:09:21;21.63;;;10.67;;
68583;SDS011;55557;49.220;11.150;2023-03-01T12:14:25;19.60;;;10.60;;
68583;SDS011;55557;49.220;11.150;2023-03-01T12:17:16;14.33;;;9.70;;
68583;SDS011;55557;49.220;11.150;2023-03-01T12:30:26;15.67;;;9.93;;
68583;SDS011;55557;49.220;11.150;2023-03-01T12:37:54;13.27;;;8.87;;
68583;SDS011;55557;49.220;11.150;2023-03-01T12:40:24;16.40;;;9.20;;
68583;SDS011;55557;49.220;11.150;2023-03-01T12:45:47;14.17;;;9.77;;
68583;SDS011;55557;49.220;11.150;2023-03-01T12:48:23;15.37;;;8.90;;
68583;SDS011;55557;49.220;11.150;2023-03-01T12:50:52;15.53;;;9.33;;
68583;SDS011;55557;49.220;11.150;2023-03-01T12:53:23;14.07;;;9.17;;
68583;SDS011;55557;49.220;11.150;2023-03-01T12:55:49;16.43;;;9.37;;
68583;SDS011;55557;49.220;11.150;2023-03-01T13:01:00;15.03;;;7.87;;
68583;SDS011;55557;49.220;11.150;2023-03-01T13:03:45;15.77;;;8.73;;
68583;SDS011;55557;49.220;11.150;2023-03-01T13:09:08;16.43;;;9.43;;
68583;SDS011;55557;49.220;11.150;2023-03-01T13:11:40;17.47;;;9.60;;
68583;SDS011;55557;49.220;11.150;2023-03-01T13:16:48;13.70;;;9.87;;
68583;SDS011;55557;49.220;11.150;2023-03-01T13:19:16;14.27;;;9.90;;
68583;SDS011;55557;49.220;11.150;2023-03-01T13:21:43;16.77;;;9.67;;
68583;SDS011;55557;49.220;11.150;2023-03-01T13:24:24;13.37;;;9.40;;
68583;SDS011;55557;49.220;11.150;2023-03-01T13:29:53;16.57;;;9.47;;
68583;SDS011;55557;49.220;11.150;2023-03-01T13:32:28;15.87;;;9.03;;
68583;SDS011;55557;49.220;11.150;2023-03-01T13:35:00;17.77;;;10.03;;
68583;SDS011;55557;49.220;11.150;2023-03-01T13:37:30;16.17;;;9.73;;
68583;SDS011;55557;49.220;11.150;2023-03-01T13:39:57;15.20;;;9.63;;
68583;SDS011;55557;49.220;11.150;2023-03-01T13:44:59;16.33;;;10.20;;
68583;SDS011;55557;49.220;11.150;2023-03-01T13:47:25;16.33;;;9.87;;
68583;SDS011;55557;49.220;11.150;2023-03-01T13:50:02;19.83;;;9.97;;
68583;SDS011;55557;49.220;11.150;2023-03-01T13:52:35;18.67;;;9.97;;
68583;SDS011;55557;49.220;11.150;2023-03-01T13:55:05;16.47;;;10.07;;
68583;SDS011;55557;49.220;11.150;2023-03-01T13:57:35;16.97;;;10.47;;
68583;SDS011;55557;49.220;11.150;2023-03-01T14:00:04;15.57;;;9.50;;
68583;SDS011;55557;49.220;11.150;2023-03-01T14:02:30;13.77;;;9.40;;
68583;SDS011;55557;49.220;11.150;2023-03-01T14:05:00;13.53;;;8.80;;
68583;SDS011;55557;49.220;11.150;2023-03-01T14:07:26;14.33;;;8.87;;
68583;SDS011;55557;49.220;11.150;2023-03-01T14:09:57;15.33;;;9.30;;
68583;SDS011;55557;49.220;11.150;2023-03-01T14:12:37;17.13;;;9.07;;
68583;SDS011;55557;49.220;11.150;2023-03-01T14:17:40;14.57;;;8.57;;
68583;SDS011;55557;49.220;11.150;2023-03-01T14:20:09;20.93;;;8.67;;
68583;SDS011;55557;49.220;11.150;2023-03-01T14:22:36;14.13;;;8.70;;
68583;SDS011;55557;49.220;11.150;2023-03-01T14:25:16;15.00;;;9.47;;
68583;SDS011;55557;49.220;11.150;2023-03-01T14:27:43;15.80;;;9.17;;
68583;SDS011;55557;49.220;11.150;2023-03-01T14:30:13;12.67;;;8.70;;
68583;SDS011;55557;49.220;11.150;2023-03-01T14:32:40;14.23;;;9.07;;
68583;SDS011;55557;49.220;11.150;2023-03-01T14:35:22;16.23;;;8.87;;
68583;SDS011;55557;49.220;11.150;2023-03-01T14:37:49;14.33;;;8.93;;
68583;SDS011;55557;49.220;11.150;2023-03-01T14:40:28;17.20;;;9.53;;
68583;SDS011;55557;49.220;11.150;2023-03-01T14:42:56;19.00;;;10.10;;
68583;SDS011;55557;49.220;11.150;2023-03-01T14:45:25;21.87;;;9.50;;
68583;SDS011;55557;49.220;11.150;2023-03-01T14:47:52;16.47;;;9.77;;
68583;SDS011;55557;49.220;11.150;2023-03-01T14:52:48;19.00;;;9.60;;
68583;SDS011;55557;49.220;11.150;2023-03-01T14:55:17;14.90;;;9.90;;
68583;SDS011;55557;49.220;11.150;2023-03-01T14:57:46;14.47;;;9.67;;
68583;SDS011;55557;49.220;11.150;2023-03-01T15:00:16;22.13;;;10.30;;
68583;SDS011;55557;49.220;11.150;2023-03-01T15:02:43;14.93;;;9.07;;
68583;SDS011;55557;49.220;11.150;2023-03-01T15:05:09;18.03;;;10.47;;
68583;SDS011;55557;49.220;11.150;2023-03-01T15:07:40;13.93;;;9.33;;
68583;SDS011;55557;49.220;11.150;2023-03-01T15:10:11;18.90;;;10.70;;
68583;SDS011;55557;49.220;11.150;2023-03-01T15:12:40;18.07;;;10.83;;
68583;SDS011;55557;49.220;11.150;2023-03-01T15:17:58;17.27;;;10.13;;
68583;SDS011;55557;49.220;11.150;2023-03-01T15:20:25;17.60;;;9.80;;
68583;SDS011;55557;49.220;11.150;2023-03-01T15:22:53;14.80;;;10.43;;
68583;SDS011;55557;49.220;11.150;2023-03-01T15:25:20;18.77;;;11.17;;
68583;SDS011;55557;49.220;11.150;2023-03-01T15:27:47;13.80;;;9.60;;
68583;SDS011;55557;49.220;11.150;2023-03-01T15:30:17;18.07;;;9.93;;
68583;SDS011;55557;49.220;11.150;2023-03-01T15:32:44;18.70;;;9.90;;
68583;SDS011;55557;49.220;11.150;2023-03-01T15:37:55;14.50;;;9.43;;
68583;SDS011;55557;49.220;11.150;2023-03-01T15:42:57;17.13;;;10.23;;
68583;SDS011;55557;49.220;11.150;2023-03-01T15:45:24;18.03;;;10.07;;
68583;SDS011;55557;49.220;11.150;2023-03-01T15:47:55;17.10;;;10.63;;
68583;SDS011;55557;49.220;11.150;2023-03-01T15:50:28;17.93;;;11.70;;